Forside
METAR-TAF:

METAR-TAF

Lufthavne :

Miyazaki, Japan

Breddekreds: 31-52N, længdekreds: 131-27E, højde: 6 m

Aktuelle vejr

Denne rapport blev lavet for 5 timer og 44 minutter siden, kl. 12:00 UTC
Vind 6 kt fra vest
Temperatur 16°C
Fugtighed 77%
Tryk 1019 hPa
Sigt 10 km eller mere
Nogle få skyer i en højde af 3000 ft
Brudte skyer i en højde af 11000 ft

METAR: RJFM 031200Z 26006KT 9999 FEW030 BKN110 16/12 Q1019

Tid: 02:44 (17:44 UTC)

Vejrudsigter

Denne rapport blev lavet for 6 timer og 36 minutter siden, kl. 11:08 UTC
Foreløbig gælder fra 03 på 12 UTC til 04 på 18 UTC
Vind 10 kt fra vest
Sigt 10 km eller mere
Nogle få skyer i en højde af 3000 ft
Spredte skyer i en højde af 4000 ft
ændring
fra 04 på 00 UTC til 04 på 03 UTC
Vind 12 kt fra øst
ændring
fra 04 på 09 UTC til 04 på 12 UTC
Vind 17 kt fra vest

TAF: RJFM 031108Z 0312/0418 28010KT 9999 FEW030 SCT040 BECMG 0400/0403 08012KT BECMG 0409/0412 28017KT

Vejrobservationer og prognoser fra mere end 4000 lufthavne (METAR og TAF).

De gule og røde prikker repræsenterer de meteorologiske stationer.

Flyt musen over at se navnet på stationen.

Så klik over at se vejr observationer og prognoser.

At skifte det kort: Klik på de grønne knapper med et sort kors for at zoome ind; på den grønne knap med en bindestreg for at zoome ud; eller på de grønne pile for tilstødende kort.


METAR-TAF: